Time;durP1;ratioP1;P1;durP2;ratioP2;P2;SDS_P1;SDS_P2;PMS_P1;PMS_P2;Temp;Humidity;BMP_temperature;BMP_pressure;BME280_temperature;BME280_humidity;BME280_pressure;Samples;Min_cycle;Max_cycle;Signal;HPM_P1;HPM_P2
2023/06/02 00:02:29;;;;;;;12.20;4.25;;;;;;;11.60;67.52;101962.44;5023389;28;20029;-66
2023/06/02 00:04:57;;;;;;;6.18;4.10;;;;;;;11.60;67.52;101951.78;5023188;28;20037;-67
2023/06/02 00:07:25;;;;;;;9.02;4.82;;;;;;;11.55;67.67;101957.28;5023351;28;20075;-67
2023/06/02 00:09:51;;;;;;;7.70;4.38;;;;;;;11.64;67.93;101954.25;5023282;28;20387;-66
2023/06/02 00:12:17;;;;;;;12.02;4.43;;;;;;;11.53;68.03;101953.78;5022810;28;20033;-67
2023/06/02 00:14:42;;;;;;;6.78;4.50;;;;;;;11.66;67.86;101951.53;5021394;28;20091;-68
2023/06/02 00:17:10;;;;;;;8.48;4.63;;;;;;;11.57;68.39;101951.88;5020601;28;20025;-66
2023/06/02 00:19:37;;;;;;;7.50;4.00;;;;;;;11.61;68.38;101953.50;5023120;28;20103;-66
2023/06/02 00:22:05;;;;;;;7.35;4.57;;;;;;;11.67;68.18;101951.47;5023033;28;20021;-66
2023/06/02 00:24:31;;;;;;;8.63;4.22;;;;;;;11.66;68.18;101954.19;5022556;28;20045;-66
2023/06/02 00:26:57;;;;;;;8.90;4.35;;;;;;;11.59;68.06;101942.91;5023432;28;20032;-66
2023/06/02 00:29:22;;;;;;;9.30;4.10;;;;;;;11.63;68.19;101947.19;5021040;28;20025;-66
2023/06/02 00:31:48;;;;;;;8.82;4.57;;;;;;;11.57;68.27;101943.88;5019989;28;20017;-65
2023/06/02 00:34:13;;;;;;;8.40;4.38;;;;;;;11.53;68.48;101942.25;5020117;28;20025;-66
2023/06/02 00:36:39;;;;;;;7.07;4.15;;;;;;;11.52;68.41;101940.50;5018661;28;20032;-66
2023/06/02 00:39:04;;;;;;;9.88;4.70;;;;;;;11.48;68.41;101943.28;5007495;28;20029;-65
2023/06/02 00:41:30;;;;;;;7.18;4.00;;;;;;;11.44;68.32;101938.13;5020023;28;20017;-66
2023/06/02 00:43:55;;;;;;;7.93;4.53;;;;;;;11.44;68.36;101944.31;5021099;28;20040;-67
2023/06/02 00:46:21;;;;;;;8.50;5.07;;;;;;;11.44;68.54;101941.66;5022603;28;20052;-65
2023/06/02 00:48:50;;;;;;;9.77;5.07;;;;;;;11.41;68.82;101943.56;5022285;28;20033;-65
2023/06/02 00:51:17;;;;;;;7.30;4.30;;;;;;;11.41;69.02;101935.56;5022764;28;20028;-67
2023/06/02 00:53:44;;;;;;;7.93;4.55;;;;;;;11.39;69.10;101942.78;5018215;28;20034;-66
2023/06/02 00:56:13;;;;;;;6.97;4.68;;;;;;;11.43;68.59;101942.59;5019793;28;20094;-65
2023/06/02 00:58:41;;;;;;;9.43;4.63;;;;;;;11.37;68.50;101936.59;5022139;28;20036;-66
2023/06/02 01:01:12;;;;;;;9.40;4.45;;;;;;;11.42;68.60;101940.00;5022841;28;20065;-67
2023/06/02 01:03:45;;;;;;;8.82;4.53;;;;;;;11.26;69.17;101938.81;5021294;28;20017;-66
2023/06/02 01:06:12;;;;;;;7.70;4.30;;;;;;;11.39;68.95;101948.97;5014177;28;20021;-66
2023/06/02 01:08:39;;;;;;;11.20;4.78;;;;;;;11.25;68.65;101945.94;5020121;28;20491;-66
2023/06/02 01:11:07;;;;;;;8.43;4.35;;;;;;;11.27;68.17;101949.41;5022416;28;20056;-66
2023/06/02 01:13:33;;;;;;;7.80;4.32;;;;;;;11.25;67.81;101950.41;5019757;28;20029;-67
2023/06/02 01:15:58;;;;;;;9.05;4.45;;;;;;;11.23;67.17;101943.31;5022481;28;20076;-65
2023/06/02 01:18:25;;;;;;;9.40;5.00;;;;;;;11.18;67.07;101947.94;5021642;28;20072;-67
2023/06/02 01:20:57;;;;;;;8.05;4.13;;;;;;;11.06;67.21;101947.50;5011475;28;20060;-67
2023/06/02 01:23:29;;;;;;;8.32;4.30;;;;;;;11.20;67.11;101950.53;5021528;28;20419;-67
2023/06/02 01:25:55;;;;;;;8.35;4.00;;;;;;;11.21;67.20;101953.19;5021373;28;20022;-65
2023/06/02 01:28:21;;;;;;;8.82;4.47;;;;;;;11.06;67.08;101948.38;5015696;28;20551;-66
2023/06/02 01:30:50;;;;;;;11.23;4.57;;;;;;;11.00;67.31;101958.41;5016008;28;20112;-67
2023/06/02 01:33:21;;;;;;;7.93;4.28;;;;;;;11.09;67.35;101944.75;5019022;28;20021;-67
2023/06/02 01:35:54;;;;;;;8.43;4.07;;;;;;;11.06;67.63;101952.84;5021167;28;20034;-66
2023/06/02 01:38:21;;;;;;;7.80;4.20;;;;;;;11.04;67.21;101944.06;5020448;28;20101;-66
2023/06/02 01:40:47;;;;;;;13.10;4.75;;;;;;;10.92;67.43;101948.88;5020832;28;20021;-66
2023/06/02 01:43:14;;;;;;;8.77;4.03;;;;;;;10.89;67.26;101938.31;5014648;28;20395;-67
2023/06/02 01:45:41;;;;;;;8.55;4.10;;;;;;;10.92;67.27;101951.53;5020942;28;20029;-66
2023/06/02 01:48:08;;;;;;;10.02;4.63;;;;;;;11.00;67.02;101951.28;5024305;28;20073;-67
2023/06/02 01:50:35;;;;;;;7.88;4.30;;;;;;;10.97;66.73;101940.72;5033432;28;20033;-65
2023/06/02 01:53:00;;;;;;;9.30;3.90;;;;;;;10.99;67.18;101941.53;5026583;28;20083;-67
2023/06/02 01:55:25;;;;;;;7.20;3.78;;;;;;;10.92;66.44;101940.88;5021923;28;20041;-66
2023/06/02 01:57:51;;;;;;;10.07;4.00;;;;;;;10.95;66.54;101935.47;5016937;28;20429;-66
2023/06/02 02:00:18;;;;;;;10.85;3.92;;;;;;;10.92;66.78;101938.22;5025108;28;20461;-66
2023/06/02 02:02:43;;;;;;;11.23;4.00;;;;;;;11.02;66.51;101940.56;5018878;28;20407;-65
2023/06/02 02:05:10;;;;;;;8.23;3.80;;;;;;;10.93;66.92;101937.28;5019993;28;20021;-66
2023/06/02 02:07:35;;;;;;;9.52;3.53;;;;;;;10.92;66.84;101948.88;5025957;28;20025;-66
2023/06/02 02:10:02;;;;;;;9.38;3.92;;;;;;;10.92;66.77;101946.22;5026047;28;20029;-67
2023/06/02 02:12:28;;;;;;;12.82;3.97;;;;;;;10.91;66.85;101933.81;5024063;28;20033;-67
2023/06/02 02:14:56;;;;;;;11.05;4.25;;;;;;;10.78;67.02;101945.78;5012565;28;20026;-66
2023/06/02 02:17:24;;;;;;;11.52;4.22;;;;;;;10.77;67.46;101941.41;5021833;28;20021;-67
2023/06/02 02:19:50;;;;;;;7.70;3.85;;;;;;;10.82;67.15;101950.09;5012448;28;20045;-65
2023/06/02 02:22:16;;;;;;;11.43;4.30;;;;;;;10.86;67.33;101942.88;5017471;28;20090;-66
2023/06/02 02:24:41;;;;;;;10.70;3.85;;;;;;;10.80;67.44;101943.97;5024032;28;20033;-66
2023/06/02 02:27:08;;;;;;;10.18;3.90;;;;;;;10.88;67.52;101939.25;5019696;28;20025;-67
2023/06/02 02:29:36;;;;;;;8.38;4.10;;;;;;;10.90;67.46;101947.16;5025464;28;20034;-66
2023/06/02 02:32:02;;;;;;;10.13;3.67;;;;;;;10.83;67.42;101945.66;5020402;28;20491;-66
2023/06/02 02:34:28;;;;;;;12.27;4.32;;;;;;;10.91;67.39;101940.91;5021217;28;20049;-66
2023/06/02 02:36:58;;;;;;;10.27;4.18;;;;;;;10.87;67.63;101944.63;5023277;28;20065;-66
2023/06/02 02:40:13;;;;;;;9.43;4.47;;;;;;;10.82;67.49;101947.44;5036084;28;20287;-66
2023/06/02 02:42:39;;;;;;;12.20;4.28;;;;;;;10.90;67.79;101942.72;5027006;23;20053;-72
2023/06/02 02:45:05;;;;;;;7.65;3.63;;;;;;;10.82;67.89;101944.78;5021617;28;20035;-71
2023/06/02 02:47:31;;;;;;;11.20;4.53;;;;;;;10.93;67.80;101933.75;5033878;28;20112;-72
2023/06/02 02:49:56;;;;;;;9.10;3.83;;;;;;;11.04;67.81;101933.41;5020317;28;20044;-71
2023/06/02 02:52:21;;;;;;;11.32;4.78;;;;;;;10.97;67.83;101932.72;5026515;28;20028;-71
2023/06/02 02:54:47;;;;;;;10.85;4.53;;;;;;;11.04;67.67;101931.59;5031213;28;20181;-69
2023/06/02 02:57:50;;;;;;;9.80;4.07;;;;;;;11.06;67.59;101934.19;5028510;28;20026;-70
2023/06/02 03:00:16;;;;;;;11.93;3.90;;;;;;;11.00;67.93;101931.75;5027891;23;20509;-66
2023/06/02 03:02:41;;;;;;;8.38;3.67;;;;;;;11.00;68.12;101942.41;5031791;28;20060;-67
2023/06/02 03:05:08;;;;;;;14.18;4.60;;;;;;;10.86;68.33;101930.44;5023892;28;20112;-67
2023/06/02 03:07:55;;;;;;;12.35;4.88;;;;;;;10.84;68.70;101932.28;5037174;28;20022;-68
2023/06/02 03:10:20;;;;;;;12.55;4.50;;;;;;;10.79;68.79;101934.25;5022324;28;20059;-66
2023/06/02 03:12:45;;;;;;;10.35;4.38;;;;;;;10.78;68.70;101929.81;5024172;28;20705;-66
2023/06/02 03:15:11;;;;;;;9.80;4.38;;;;;;;10.80;68.89;101946.63;5023938;28;20037;-65
2023/06/02 03:17:37;;;;;;;10.45;4.57;;;;;;;10.71;69.48;101944.28;5015039;28;20435;-65
2023/06/02 03:20:09;;;;;;;9.60;4.35;;;;;;;10.65;69.62;101942.69;5017972;28;20036;-67
2023/06/02 03:22:35;;;;;;;8.60;4.03;;;;;;;10.70;69.80;101943.41;5023249;28;20508;-67
2023/06/02 03:25:00;;;;;;;12.23;4.88;;;;;;;10.76;69.63;101945.00;5025072;28;20337;-65
2023/06/02 03:27:27;;;;;;;8.60;4.50;;;;;;;10.80;69.59;101933.31;5004356;28;20040;-65
2023/06/02 03:29:52;;;;;;;11.15;4.05;;;;;;;10.89;69.50;101933.00;5024742;28;20079;-66
2023/06/02 03:32:18;;;;;;;17.88;5.32;;;;;;;10.89;69.52;101935.66;5024040;28;22169;-66
2023/06/02 03:34:44;;;;;;;8.90;5.45;;;;;;;10.89;69.71;101934.78;5022432;28;20032;-67
2023/06/02 03:37:11;;;;;;;10.65;4.63;;;;;;;10.91;70.01;101936.50;5029015;28;20523;-66
2023/06/02 03:39:37;;;;;;;11.43;4.78;;;;;;;10.94;69.82;101941.69;5001213;28;20057;-66
2023/06/02 03:42:03;;;;;;;13.68;5.47;;;;;;;10.87;70.33;101936.66;5015518;28;20063;-66
2023/06/02 03:44:29;;;;;;;12.98;5.05;;;;;;;10.90;70.68;101945.38;5007337;28;20111;-67
2023/06/02 03:46:55;;;;;;;11.27;4.78;;;;;;;10.92;70.38;101943.53;5014744;28;20432;-66
2023/06/02 03:49:21;;;;;;;14.68;4.80;;;;;;;10.94;70.65;101948.81;5022287;28;20025;-66
2023/06/02 03:51:47;;;;;;;11.25;4.88;;;;;;;10.94;70.45;101943.47;5024960;28;20021;-67
2023/06/02 03:54:13;;;;;;;11.18;4.40;;;;;;;10.92;70.35;101945.34;5024950;28;20499;-66
2023/06/02 03:56:38;;;;;;;12.93;4.97;;;;;;;10.79;70.22;101960.00;4999159;28;20034;-66
2023/06/02 03:59:04;;;;;;;12.80;4.95;;;;;;;10.76;70.29;101950.31;5021196;28;20056;-65
2023/06/02 04:01:31;;;;;;;13.10;4.97;;;;;;;10.66;70.22;101957.75;5022258;28;20043;-66
2023/06/02 04:03:56;;;;;;;10.95;4.47;;;;;;;10.69;70.49;101954.09;5024368;28;20106;-67
2023/06/02 04:06:21;;;;;;;13.00;5.05;;;;;;;10.78;70.59;101963.56;5025818;28;20502;-67
2023/06/02 04:08:47;;;;;;;12.90;4.85;;;;;;;10.77;69.83;101959.19;5031652;28;20041;-66
2023/06/02 04:11:12;;;;;;;13.43;5.05;;;;;;;10.78;70.10;101967.09;5024176;28;20365;-67
2023/06/02 04:13:38;;;;;;;10.35;4.43;;;;;;;10.75;69.94;101969.88;5028230;28;20025;-66
2023/06/02 04:16:05;;;;;;;9.88;4.75;;;;;;;10.64;69.29;101966.69;5031368;28;20379;-65
2023/06/02 04:18:31;;;;;;;12.77;5.40;;;;;;;10.70;69.08;101964.72;5018257;28;20048;-66
2023/06/02 04:20:57;;;;;;;12.02;4.47;;;;;;;10.72;69.21;101959.34;5025196;28;20049;-66
2023/06/02 04:23:23;;;;;;;12.40;4.70;;;;;;;10.62;68.66;101958.78;5021864;28;20029;-66
2023/06/02 04:25:49;;;;;;;9.98;4.50;;;;;;;10.61;68.75;101956.16;5022287;28;20420;-66
2023/06/02 04:28:15;;;;;;;12.75;5.10;;;;;;;10.68;68.83;101949.72;5030283;28;20028;-66
2023/06/02 04:30:40;;;;;;;12.57;5.05;;;;;;;10.77;68.47;101949.38;5022189;28;20040;-67
2023/06/02 04:33:06;;;;;;;14.32;4.90;;;;;;;10.71;68.10;101950.47;5025110;28;20025;-66
2023/06/02 04:35:32;;;;;;;10.93;4.95;;;;;;;10.70;68.44;101955.84;5017429;28;20094;-66
2023/06/02 04:37:58;;;;;;;10.55;4.50;;;;;;;10.63;68.70;101946.34;5016586;28;20085;-65
2023/06/02 04:40:23;;;;;;;11.90;4.43;;;;;;;10.73;68.35;101955.75;5022309;28;20237;-66
2023/06/02 04:42:48;;;;;;;11.80;4.85;;;;;;;10.69;68.70;101962.09;5024081;28;20061;-66
2023/06/02 04:45:16;;;;;;;8.65;4.32;;;;;;;10.80;68.52;101961.75;5022205;28;20487;-66
2023/06/02 04:47:42;;;;;;;10.40;4.75;;;;;;;10.75;68.43;101964.56;5024045;28;20026;-66
2023/06/02 04:50:11;;;;;;;13.07;5.15;;;;;;;10.82;68.50;101963.41;5024555;28;20067;-66
2023/06/02 04:52:42;;;;;;;10.13;4.68;;;;;;;10.80;68.41;101970.59;5028577;28;20057;-66
2023/06/02 04:55:08;;;;;;;10.40;4.47;;;;;;;10.83;68.45;101959.84;5027976;28;20022;-67
2023/06/02 04:57:36;;;;;;;11.05;4.80;;;;;;;10.86;68.19;101965.03;5025685;28;20022;-67
2023/06/02 05:00:06;;;;;;;9.75;4.40;;;;;;;10.80;67.73;101970.59;5025311;28;20068;-66
2023/06/02 05:02:31;;;;;;;11.10;4.97;;;;;;;10.86;67.90;101970.38;5024273;28;20029;-66
2023/06/02 05:04:57;;;;;;;14.15;4.65;;;;;;;10.81;68.04;101977.66;5023279;28;20037;-67
2023/06/02 05:07:22;;;;;;;11.32;5.00;;;;;;;10.89;67.96;101974.75;5005060;28;20033;-66
2023/06/02 05:09:48;;;;;;;11.98;4.63;;;;;;;10.88;68.27;101981.88;5022587;28;20076;-66
2023/06/02 05:12:16;;;;;;;14.13;4.50;;;;;;;10.89;68.14;101985.41;5022065;28;20478;-68
2023/06/02 05:14:41;;;;;;;10.55;4.90;;;;;;;10.92;68.65;101983.50;4994095;28;20527;-67
2023/06/02 05:17:07;;;;;;;8.15;4.28;;;;;;;10.93;67.80;101981.72;5024133;28;20017;-67
2023/06/02 05:19:33;;;;;;;10.43;4.43;;;;;;;10.89;67.45;101988.06;5026395;28;20044;-67
2023/06/02 05:21:58;;;;;;;10.60;4.10;;;;;;;10.79;67.75;101986.63;5021034;28;20068;-66
2023/06/02 05:24:24;;;;;;;10.32;4.70;;;;;;;10.77;67.32;101986.66;5040853;28;20460;-66
2023/06/02 05:26:49;;;;;;;6.28;3.58;;;;;;;10.76;66.70;101992.06;5031386;28;20498;-66
2023/06/02 05:29:15;;;;;;;11.20;4.00;;;;;;;10.75;66.88;101991.19;5025506;28;20025;-65
2023/06/02 05:31:40;;;;;;;9.48;3.58;;;;;;;10.91;67.04;101986.19;5026093;28;20386;-66
2023/06/02 05:34:05;;;;;;;11.07;4.20;;;;;;;10.94;65.86;101992.28;5028203;28;20026;-66
2023/06/02 05:36:31;;;;;;;12.25;4.10;;;;;;;10.77;65.46;101978.69;5036591;28;20025;-65
2023/06/02 05:38:56;;;;;;;8.57;3.60;;;;;;;10.80;65.28;101983.03;5027807;28;20026;-66
2023/06/02 05:41:21;;;;;;;9.13;3.65;;;;;;;10.76;64.79;101989.41;5031578;28;20029;-66
2023/06/02 05:43:47;;;;;;;12.48;4.00;;;;;;;10.77;65.48;101989.34;5027537;28;20528;-65
2023/06/02 05:46:12;;;;;;;7.97;3.22;;;;;;;10.83;65.66;101990.94;5025457;28;20036;-66
2023/06/02 05:48:38;;;;;;;10.95;3.70;;;;;;;10.80;65.86;101994.56;5024087;28;20029;-66
2023/06/02 05:51:03;;;;;;;7.90;3.45;;;;;;;10.82;65.54;101989.19;5027500;28;20269;-65
2023/06/02 05:53:29;;;;;;;7.45;3.17;;;;;;;10.86;66.23;101991.69;5040700;28;20037;-67
2023/06/02 05:55:54;;;;;;;7.28;3.60;;;;;;;10.92;65.80;101991.50;5024457;28;20048;-66
2023/06/02 05:58:20;;;;;;;12.13;3.78;;;;;;;10.98;65.94;101996.59;5001189;28;20048;-65
2023/06/02 06:00:45;;;;;;;9.80;3.67;;;;;;;10.98;65.78;101993.06;5009759;28;20461;-68
2023/06/02 06:03:12;;;;;;;11.75;3.72;;;;;;;11.06;65.86;101999.00;5028040;28;20029;-65
2023/06/02 06:05:38;;;;;;;10.77;3.50;;;;;;;11.17;65.42;101996.84;5034326;28;20120;-66
2023/06/02 06:08:03;;;;;;;10.50;3.45;;;;;;;11.05;65.49;101985.75;5027701;28;20187;-66
2023/06/02 06:10:29;;;;;;;8.40;3.72;;;;;;;11.11;65.21;101985.53;5024614;28;20079;-67
2023/06/02 06:12:54;;;;;;;6.40;3.63;;;;;;;11.13;64.87;101997.88;5026230;28;20091;-66
2023/06/02 06:15:19;;;;;;;8.43;3.60;;;;;;;11.08;64.85;101997.19;5028994;28;20037;-67
2023/06/02 06:17:53;;;;;;;10.30;3.35;;;;;;;11.17;64.59;101994.19;5022547;28;20064;-67
2023/06/02 06:20:20;;;;;;;11.88;4.05;;;;;;;11.24;64.40;101986.81;5026134;28;20037;-66
2023/06/02 06:22:45;;;;;;;8.80;3.42;;;;;;;11.39;64.42;101986.28;5029606;28;20516;-66
2023/06/02 06:25:11;;;;;;;9.13;3.70;;;;;;;11.22;63.72;101983.34;5026158;28;20144;-65
2023/06/02 06:27:38;;;;;;;10.52;3.60;;;;;;;11.32;63.96;101995.41;5014543;28;20087;-66
2023/06/02 06:30:05;;;;;;;9.18;3.50;;;;;;;11.25;64.09;102001.91;5032571;28;20036;-66
2023/06/02 06:32:46;;;;;;;13.27;3.67;;;;;;;11.38;64.34;101997.00;5025074;28;20084;-67
2023/06/02 06:35:12;;;;;;;10.05;3.97;;;;;;;11.26;64.37;101994.78;5032911;23;20212;-71
2023/06/02 06:37:37;;;;;;;9.02;3.67;;;;;;;11.36;64.42;102005.03;5031830;28;20060;-72
2023/06/02 06:40:02;;;;;;;10.65;3.60;;;;;;;11.43;63.74;101998.56;5033587;28;20034;-72
2023/06/02 06:42:28;;;;;;;11.57;3.97;;;;;;;11.46;63.73;102000.28;5025780;28;20045;-73
2023/06/02 06:44:53;;;;;;;7.88;3.75;;;;;;;11.57;63.42;102003.41;5031272;28;20040;-73
2023/06/02 06:49:44;;;;;;;8.93;3.60;;;;;;;11.69;63.62;101994.09;5038279;23;20062;-67
2023/06/02 06:52:10;;;;;;;10.02;3.90;;;;;;;11.82;63.10;102003.38;5013747;28;20069;-67
2023/06/02 06:54:35;;;;;;;7.45;3.58;;;;;;;11.80;62.55;101999.03;5024400;28;20029;-68
2023/06/02 06:57:01;;;;;;;8.40;3.53;;;;;;;11.67;62.32;101994.16;5001356;28;20463;-67
2023/06/02 06:59:26;;;;;;;10.18;3.60;;;;;;;11.68;62.80;102000.34;5023489;28;20424;-67
2023/06/02 07:01:51;;;;;;;10.40;4.05;;;;;;;11.65;62.87;102001.31;5022971;28;20031;-69
2023/06/02 07:04:17;;;;;;;12.77;3.95;;;;;;;11.71;62.52;102000.25;5010318;28;20073;-68
2023/06/02 07:06:43;;;;;;;11.30;3.67;;;;;;;11.62;62.55;102003.22;5017161;28;20022;-69
2023/06/02 07:09:10;;;;;;;12.25;3.80;;;;;;;11.59;62.31;102011.38;5023725;28;20110;-69
2023/06/02 07:11:36;;;;;;;9.02;3.30;;;;;;;11.70;62.11;102003.81;5023411;28;20017;-69
2023/06/02 07:14:02;;;;;;;10.50;4.15;;;;;;;11.73;62.35;102001.91;5020401;28;20780;-67
2023/06/02 07:16:27;;;;;;;9.93;3.45;;;;;;;11.91;62.44;101997.75;5019088;28;20034;-69
2023/06/02 07:18:53;;;;;;;10.23;3.92;;;;;;;11.94;61.60;102004.75;5017861;28;20230;-69
2023/06/02 07:21:18;;;;;;;13.85;3.78;;;;;;;11.99;61.48;102010.75;5022049;28;20080;-69
2023/06/02 07:23:43;;;;;;;8.50;3.58;;;;;;;11.92;61.62;102015.47;5023061;28;20021;-69
2023/06/02 07:26:08;;;;;;;8.10;3.50;;;;;;;12.09;61.23;102019.31;5025421;28;20227;-69
2023/06/02 07:28:34;;;;;;;9.90;3.63;;;;;;;12.12;60.59;102012.06;5023292;28;20037;-68
2023/06/02 07:30:59;;;;;;;9.93;3.53;;;;;;;12.22;59.74;102017.91;5018084;28;20113;-69
2023/06/02 07:33:25;;;;;;;10.82;3.83;;;;;;;12.21;59.85;102021.50;5023890;28;20366;-67
2023/06/02 07:35:50;;;;;;;11.02;4.20;;;;;;;12.27;59.75;102021.25;5013005;28;20037;-68
2023/06/02 07:38:15;;;;;;;11.88;3.80;;;;;;;12.45;58.75;102027.66;5016656;28;20372;-68
2023/06/02 07:40:41;;;;;;;10.73;3.80;;;;;;;12.40;58.91;102021.63;5017543;28;20112;-68
2023/06/02 07:43:06;;;;;;;9.70;3.92;;;;;;;12.33;58.60;102022.78;5020421;28;20029;-67
2023/06/02 07:45:31;;;;;;;9.75;3.60;;;;;;;12.34;58.78;102021.88;5023763;28;20036;-68
2023/06/02 07:47:57;;;;;;;13.82;4.10;;;;;;;12.32;58.95;102015.72;5016675;28;20137;-71
2023/06/02 07:50:22;;;;;;;13.63;3.83;;;;;;;12.21;59.08;102011.69;5016424;28;20128;-68
2023/06/02 07:52:48;;;;;;;8.95;3.42;;;;;;;12.33;58.76;102014.78;5030055;28;20051;-69
2023/06/02 07:55:13;;;;;;;12.65;3.70;;;;;;;12.49;58.66;102009.72;5019644;28;20021;-69
2023/06/02 07:57:39;;;;;;;12.15;3.63;;;;;;;12.49;57.73;102007.91;5014765;28;20491;-69
2023/06/02 08:00:16;;;;;;;8.30;3.67;;;;;;;12.76;58.17;102013.94;5002444;28;20033;-69
2023/06/02 08:02:49;;;;;;;9.50;3.80;;;;;;;12.99;57.14;102006.75;5022108;28;20124;-67
2023/06/02 08:05:18;;;;;;;16.33;4.20;;;;;;;13.10;56.37;102004.50;5020817;28;20113;-67
2023/06/02 08:07:44;;;;;;;9.55;3.45;;;;;;;13.13;55.76;102004.38;5022538;28;20055;-67
2023/06/02 08:10:11;;;;;;;11.55;3.60;;;;;;;13.43;55.85;102002.19;5014041;28;20033;-66
2023/06/02 08:12:36;;;;;;;11.27;3.80;;;;;;;13.55;55.65;102000.78;5019824;28;20033;-68
2023/06/02 08:15:03;;;;;;;8.80;3.33;;;;;;;13.67;55.33;102011.81;5020258;28;20399;-66
2023/06/02 08:17:29;;;;;;;8.63;3.25;;;;;;;13.78;54.15;102007.75;5018706;28;20037;-66
2023/06/02 08:19:59;;;;;;;11.02;3.70;;;;;;;13.72;54.08;102005.38;5019747;28;20036;-68
2023/06/02 08:22:27;;;;;;;9.98;3.53;;;;;;;13.78;53.64;102013.09;5022694;28;20042;-68
2023/06/02 08:24:57;;;;;;;12.85;4.15;;;;;;;13.86;53.95;102006.47;5018281;28;20029;-67
2023/06/02 08:27:23;;;;;;;13.93;4.15;;;;;;;13.80;54.42;102008.56;5013858;28;20054;-67
2023/06/02 08:29:50;;;;;;;13.05;3.95;;;;;;;14.03;53.80;102010.16;5017554;28;20728;-66
2023/06/02 08:32:19;;;;;;;8.63;3.65;;;;;;;13.98;53.18;102018.41;5019044;28;20055;-67
2023/06/02 08:34:47;;;;;;;12.15;3.70;;;;;;;13.88;52.91;102020.66;5033872;28;20032;-66
2023/06/02 08:37:16;;;;;;;8.18;3.80;;;;;;;14.30;52.84;102016.03;5022399;28;20480;-67
2023/06/02 08:39:46;;;;;;;10.80;3.47;;;;;;;14.32;52.11;102017.69;4972954;28;20106;-67
2023/06/02 08:42:12;;;;;;;11.10;4.32;;;;;;;14.43;51.51;102015.38;5019232;28;20029;-66
2023/06/02 08:44:40;;;;;;;8.93;3.75;;;;;;;14.37;51.33;102012.97;5021498;28;20487;-66
2023/06/02 08:47:11;;;;;;;9.38;3.30;;;;;;;14.50;51.21;102010.59;5019707;28;20273;-67
2023/06/02 08:49:41;;;;;;;10.38;3.65;;;;;;;14.91;51.59;102000.50;5020033;28;20045;-68
2023/06/02 08:52:11;;;;;;;9.73;3.78;;;;;;;15.21;50.54;102002.56;5002431;28;20664;-67
2023/06/02 08:54:38;;;;;;;9.63;4.15;;;;;;;15.99;48.98;102003.78;5020401;28;20049;-68
2023/06/02 08:57:05;;;;;;;13.80;4.07;;;;;;;16.27;47.58;102010.31;5020815;28;20044;-68
2023/06/02 08:59:32;;;;;;;14.63;3.67;;;;;;;16.04;47.00;101998.16;5019849;28;20037;-67
2023/06/02 09:02:00;;;;;;;10.55;3.75;;;;;;;16.04;47.48;101998.16;5022565;28;20332;-67
2023/06/02 09:04:25;;;;;;;12.70;4.53;;;;;;;16.17;47.66;102001.88;5021323;28;20420;-67
2023/06/02 09:07:13;;;;;;;10.38;4.10;;;;;;;16.85;46.87;101998.94;5020529;28;20098;-67
2023/06/02 09:09:43;;;;;;;8.63;3.53;;;;;;;17.23;44.38;101991.25;5016750;28;20298;-67
2023/06/02 09:12:09;;;;;;;9.10;3.63;;;;;;;18.71;42.81;101990.88;5020533;28;20149;-67
2023/06/02 09:14:39;;;;;;;8.82;3.95;;;;;;;19.41;39.90;101984.22;5022010;28;20514;-66
2023/06/02 09:17:30;;;;;;;8.32;3.33;;;;;;;19.55;41.21;101996.72;5018245;28;20605;-68
2023/06/02 09:20:10;;;;;;;11.45;3.80;;;;;;;18.61;41.07;102004.09;5016697;28;20043;-66
2023/06/02 09:22:52;;;;;;;7.68;3.38;;;;;;;18.45;41.27;101993.44;5020096;28;20037;-69
2023/06/02 09:25:25;;;;;;;10.13;3.85;;;;;;;18.20;41.91;101988.78;5018176;28;20034;-68
2023/06/02 09:27:52;;;;;;;9.55;3.60;;;;;;;18.20;42.16;101996.00;5019627;28;20072;-68
2023/06/02 09:30:18;;;;;;;11.90;3.88;;;;;;;17.90;42.44;101989.78;5020199;28;20151;-67
2023/06/02 09:32:58;;;;;;;9.00;3.25;;;;;;;18.50;43.43;101993.13;5019907;28;20167;-67
2023/06/02 09:35:34;;;;;;;12.98;3.40;;;;;;;21.53;38.89;101976.63;5025398;28;20114;-67
2023/06/02 09:38:00;;;;;;;9.77;3.28;;;;;;;23.73;33.04;101974.44;5013403;28;20039;-68
2023/06/02 09:40:29;;;;;;;9.85;3.42;;;;;;;25.68;30.10;101970.84;5021548;28;20071;-68
2023/06/02 09:42:54;;;;;;;6.93;3.30;;;;;;;25.57;28.77;101979.19;5024597;28;20021;-68
2023/06/02 09:45:20;;;;;;;7.13;3.05;;;;;;;23.49;30.60;101988.31;5021265;28;20337;-68
2023/06/02 09:47:47;;;;;;;11.23;3.55;;;;;;;22.15;33.87;101996.97;5020833;28;20025;-68
2023/06/02 09:50:32;;;;;;;11.18;3.50;;;;;;;22.82;33.06;101984.09;5020379;28;20053;-69
2023/06/02 09:53:01;;;;;;;8.15;3.40;;;;;;;21.81;33.97;101980.69;5015707;28;20025;-68
2023/06/02 09:55:26;;;;;;;9.35;3.00;;;;;;;20.88;34.89;101978.03;5021779;28;20025;-66
2023/06/02 09:57:52;;;;;;;8.80;3.25;;;;;;;20.30;35.67;101977.84;5019700;28;20308;-67
2023/06/02 10:00:18;;;;;;;8.35;3.90;;;;;;;19.94;37.02;101980.53;5015745;28;20092;-67
2023/06/02 10:02:44;;;;;;;10.50;3.40;;;;;;;19.89;37.66;101978.16;5019204;28;20403;-67
2023/06/02 10:05:09;;;;;;;9.57;3.42;;;;;;;20.26;37.07;101972.78;5023274;28;20025;-68
2023/06/02 10:07:52;;;;;;;10.02;3.58;;;;;;;20.40;37.27;101978.91;5037697;28;20326;-69
2023/06/02 10:10:23;;;;;;;9.38;3.78;;;;;;;20.58;36.37;101970.41;5037073;28;20030;-69
2023/06/02 10:13:23;;;;;;;10.63;3.72;;;;;;;22.47;36.20;101968.06;5035134;28;20089;-68
2023/06/02 10:15:57;;;;;;;11.52;3.60;;;;;;;25.11;30.51;101972.69;5024400;28;20018;-68
2023/06/02 10:18:33;;;;;;;9.15;3.20;;;;;;;26.63;29.39;101969.63;5037502;28;20045;-67
2023/06/02 10:21:15;;;;;;;9.63;3.53;;;;;;;27.49;28.62;101956.13;5038204;28;20029;-67
2023/06/02 10:24:11;;;;;;;7.97;3.20;;;;;;;28.05;26.38;101962.94;5022428;28;20064;-68
2023/06/02 10:26:48;;;;;;;9.30;3.75;;;;;;;28.02;26.28;101962.41;5023881;28;20068;-68
2023/06/02 10:29:15;;;;;;;8.75;2.90;;;;;;;28.64;24.79;101967.56;5015985;28;20029;-67
2023/06/02 10:31:43;;;;;;;9.02;3.17;;;;;;;29.34;24.60;101972.53;5003179;28;20033;-68
2023/06/02 10:34:34;;;;;;;9.43;3.20;;;;;;;30.03;24.82;101965.50;4999940;28;20084;-67
2023/06/02 10:37:00;;;;;;;10.13;3.53;;;;;;;29.50;23.67;101967.88;5022715;28;20032;-67
2023/06/02 10:39:35;;;;;;;9.23;3.50;;;;;;;29.45;24.44;101963.94;5020237;28;20417;-67
2023/06/02 10:42:09;;;;;;;11.60;3.38;;;;;;;27.89;25.65;101967.50;5022929;28;20269;-67
2023/06/02 10:44:34;;;;;;;8.13;3.30;;;;;;;27.21;25.79;101963.66;5030708;28;20037;-67
2023/06/02 10:47:18;;;;;;;10.32;4.05;;;;;;;28.22;25.87;101960.25;5027193;28;20038;-66
2023/06/02 10:50:14;;;;;;;7.22;3.13;;;;;;;28.31;25.30;101964.72;5028231;28;20041;-68
2023/06/02 10:52:58;;;;;;;7.93;3.40;;;;;;;27.48;26.13;101964.50;5020926;28;20036;-67
2023/06/02 10:55:30;;;;;;;7.25;3.58;;;;;;;25.64;27.59;101955.78;5028931;28;20226;-69
2023/06/02 10:58:07;;;;;;;9.40;3.65;;;;;;;25.29;29.54;101967.34;5021839;28;20565;-68
2023/06/02 11:00:35;;;;;;;11.77;3.83;;;;;;;26.39;28.35;101966.63;5021658;28;20041;-68
2023/06/02 11:03:17;;;;;;;9.30;3.65;;;;;;;28.19;27.05;101961.44;5017614;28;20068;-67
2023/06/02 11:05:43;;;;;;;8.18;3.00;;;;;;;27.30;26.66;101949.03;5022085;28;20112;-68
2023/06/02 11:08:11;;;;;;;8.75;3.63;;;;;;;25.10;29.41;101970.97;5017981;28;20480;-68
2023/06/02 11:10:41;;;;;;;10.63;3.55;;;;;;;25.42;29.79;101964.34;5021125;28;20109;-68
2023/06/02 11:13:07;;;;;;;11.43;3.60;;;;;;;26.54;27.64;101952.31;5021180;28;20029;-69
2023/06/02 11:15:34;;;;;;;10.00;3.70;;;;;;;27.37;27.02;101953.84;5023414;28;20052;-68
2023/06/02 11:18:01;;;;;;;9.98;3.92;;;;;;;25.86;28.27;101960.00;5019661;28;20040;-69
2023/06/02 11:20:34;;;;;;;8.63;3.80;;;;;;;24.65;30.74;101955.19;5017980;28;20503;-68
2023/06/02 11:23:07;;;;;;;;;;;;;;;26.06;28.97;101958.91;5020099;28;20245;-68
2023/06/02 11:25:32;;;;;;;9.77;3.95;;;;;;;26.46;28.10;101956.81;5023890;28;19956;-67
2023/06/02 11:27:57;;;;;;;8.32;3.92;;;;;;;27.08;28.12;101950.34;5022435;28;20487;-67
2023/06/02 11:30:25;;;;;;;9.50;3.78;;;;;;;25.78;29.11;101958.03;5019424;28;20036;-69